Terminal Aerodrome Forecast
Issued by NWS

Home | Current Version | Previous Version | Text Only | Print | Product List | Glossary Off
Versions: 1 2 3 4 5 6 7 8 9 10 11 12 13 14 15 16 17

000
FTUS43 KICT 251428 AAA
TAFRSL
TAF AMD
KRSL 251428Z 2514/2612 16018G26KT P6SM VCSH SCT100
     FM251700 16020G30KT P6SM SCT250
     FM260000 11012KT P6SM BKN120
     FM260300 07010KT P6SM VCTS SCT015 OVC040CB
     FM260800 01010KT P6SM VCSH OVC010=

USA.gov is the U.S. government's official web portal to all federal, state and local government web resources and services.